createdAt,value
2022-12-22T00:02:19.805Z,10.72
2022-12-22T00:05:34.446Z,10.25
2022-12-22T00:08:40.070Z,10.65
2022-12-22T00:11:46.434Z,10.53
2022-12-22T00:14:53.039Z,11.38
2022-12-22T00:17:58.799Z,10.30
2022-12-22T00:21:04.235Z,10.32
2022-12-22T00:24:09.657Z,9.93
2022-12-22T00:27:15.024Z,10.65
2022-12-22T00:30:21.620Z,10.32
2022-12-22T00:33:29.843Z,9.90
2022-12-22T00:36:35.166Z,9.73
2022-12-22T00:39:40.836Z,9.78
2022-12-22T00:42:46.461Z,9.55
2022-12-22T00:45:52.485Z,9.65
2022-12-22T00:49:00.198Z,10.70
2022-12-22T00:52:06.024Z,10.32
2022-12-22T00:55:13.409Z,10.18
2022-12-22T00:58:20.232Z,9.98
2022-12-22T01:01:25.973Z,10.13
2022-12-22T01:04:31.667Z,10.40
2022-12-22T01:07:39.997Z,10.40
2022-12-22T01:10:45.928Z,9.95
2022-12-22T01:13:51.542Z,10.53
2022-12-22T01:16:57.159Z,11.00
2022-12-22T01:20:02.819Z,11.18
2022-12-22T01:23:08.665Z,11.05
2022-12-22T01:26:13.941Z,12.68
2022-12-22T01:29:19.583Z,11.70
2022-12-22T01:32:26.860Z,12.25
2022-12-22T01:35:41.571Z,11.85
2022-12-22T01:38:47.412Z,11.40
2022-12-22T01:41:52.554Z,11.88
2022-12-22T01:44:57.740Z,12.40
2022-12-22T01:48:02.910Z,11.90
2022-12-22T01:51:08.149Z,11.90
2022-12-22T01:54:15.200Z,12.33
2022-12-22T01:57:20.872Z,11.68
2022-12-22T02:00:27.178Z,11.57
2022-12-22T02:03:37.596Z,11.43
2022-12-22T02:06:48.533Z,11.78
2022-12-22T02:10:15.163Z,12.07
2022-12-22T02:13:23.642Z,12.20
2022-12-22T02:16:35.345Z,11.12
2022-12-22T02:20:09.373Z,11.03
2022-12-22T02:23:21.410Z,10.75
2022-12-22T02:26:47.576Z,10.80
2022-12-22T02:30:01.255Z,9.60
2022-12-22T02:33:09.847Z,10.03
2022-12-22T02:36:25.805Z,10.63
2022-12-22T02:39:36.999Z,9.65
2022-12-22T02:42:52.724Z,9.30
2022-12-22T02:49:20.931Z,8.10
2022-12-22T02:52:38.512Z,6.60
2022-12-22T02:55:44.468Z,7.08
2022-12-22T02:58:52.093Z,7.42
2022-12-22T03:05:02.573Z,7.75
2022-12-22T03:08:08.915Z,6.83
2022-12-22T03:11:14.655Z,8.30
2022-12-22T03:14:19.881Z,8.70
2022-12-22T03:17:24.929Z,9.33
2022-12-22T03:20:30.402Z,8.80
2022-12-22T03:23:35.427Z,9.60
2022-12-22T03:26:23.228Z,9.38
2022-12-22T03:29:10.714Z,9.53
2022-12-22T03:31:58.072Z,10.43
2022-12-22T03:34:45.154Z,9.33
2022-12-22T03:37:32.721Z,9.30
2022-12-22T03:40:21.689Z,9.80
2022-12-22T03:43:29.612Z,9.80
2022-12-22T03:46:31.492Z,10.45
2022-12-22T03:49:19.411Z,9.10
2022-12-22T03:52:06.846Z,8.15
2022-12-22T03:54:54.416Z,8.75
2022-12-22T03:57:42.738Z,8.98
2022-12-22T04:00:29.901Z,9.58
2022-12-22T04:03:17.711Z,8.98
2022-12-22T04:06:05.107Z,8.40
2022-12-22T04:08:52.849Z,9.25
2022-12-22T04:11:58.412Z,8.95
2022-12-22T04:14:45.579Z,9.68
2022-12-22T04:17:35.659Z,9.58
2022-12-22T04:20:27.249Z,9.48
2022-12-22T04:23:14.582Z,10.13
2022-12-22T04:26:02.852Z,10.45
2022-12-22T04:28:52.078Z,9.98
2022-12-22T04:31:39.090Z,9.28
2022-12-22T04:34:26.547Z,10.68
2022-12-22T04:37:17.446Z,10.40
2022-12-22T04:40:02.938Z,9.43
2022-12-22T04:42:50.203Z,9.13
2022-12-22T04:45:37.919Z,10.00
2022-12-22T04:48:28.027Z,8.80
2022-12-22T04:51:15.071Z,8.75
2022-12-22T04:54:02.209Z,8.53
2022-12-22T04:56:50.783Z,7.90
2022-12-22T04:59:37.962Z,7.92
2022-12-22T05:02:25.566Z,6.80
2022-12-22T05:05:14.767Z,6.47
2022-12-22T05:08:02.018Z,6.40
2022-12-22T05:10:49.378Z,6.08
2022-12-22T05:13:37.290Z,6.33
2022-12-22T05:16:24.752Z,5.95
2022-12-22T05:19:12.984Z,6.00
2022-12-22T05:22:00.267Z,5.85
2022-12-22T05:24:48.757Z,5.83
2022-12-22T05:27:36.180Z,6.03
2022-12-22T05:30:23.573Z,5.50
2022-12-22T05:33:11.016Z,5.72
2022-12-22T05:35:58.462Z,5.70
2022-12-22T05:38:46.159Z,4.87
2022-12-22T05:41:33.566Z,5.20
2022-12-22T05:44:21.076Z,5.47
2022-12-22T05:47:08.590Z,6.10
2022-12-22T05:49:56.835Z,5.15
2022-12-22T05:52:44.480Z,5.37
2022-12-22T05:55:32.065Z,5.53
2022-12-22T05:58:20.951Z,5.53
2022-12-22T06:01:08.788Z,5.90
2022-12-22T06:04:00.122Z,6.30
2022-12-22T06:06:44.903Z,5.72
2022-12-22T06:09:32.137Z,5.00
2022-12-22T06:12:19.652Z,5.12
2022-12-22T06:15:07.803Z,5.85
2022-12-22T06:17:55.076Z,6.12
2022-12-22T06:20:42.401Z,5.58
2022-12-22T06:23:29.801Z,5.37
2022-12-22T06:26:17.250Z,4.83
2022-12-22T06:29:04.616Z,5.20
2022-12-22T06:31:52.232Z,4.60
2022-12-22T06:34:39.371Z,4.37
2022-12-22T06:37:26.541Z,4.40
2022-12-22T06:40:14.227Z,3.47
2022-12-22T06:43:10.741Z,3.55
2022-12-22T06:45:58.392Z,3.50
2022-12-22T06:48:48.483Z,3.02
2022-12-22T06:51:35.960Z,3.37
2022-12-22T06:54:26.366Z,3.25
2022-12-22T06:57:12.196Z,3.05
2022-12-22T06:59:59.843Z,2.72
2022-12-22T07:02:47.472Z,2.98
2022-12-22T07:05:35.090Z,2.70
2022-12-22T07:08:22.450Z,3.17
2022-12-22T07:11:12.500Z,3.12
2022-12-22T07:13:59.734Z,2.85
2022-12-22T07:16:48.047Z,3.62
2022-12-22T07:19:35.476Z,3.17
2022-12-22T07:22:29.351Z,3.10
2022-12-22T07:25:11.523Z,2.70
2022-12-22T07:27:58.766Z,2.58
2022-12-22T07:30:46.615Z,2.60
2022-12-22T07:33:34.193Z,2.05
2022-12-22T07:36:22.002Z,2.00
2022-12-22T07:39:09.562Z,2.08
2022-12-22T07:42:15.104Z,2.02
2022-12-22T07:45:02.869Z,1.80
2022-12-22T07:47:51.487Z,6.40
2022-12-22T07:50:38.732Z,7.08
2022-12-22T07:53:30.607Z,2.60
2022-12-22T07:56:17.741Z,1.42
2022-12-22T07:59:09.100Z,1.45
2022-12-22T08:01:56.783Z,1.15
2022-12-22T08:04:43.896Z,1.45
2022-12-22T08:07:32.703Z,4.20
2022-12-22T08:10:21.128Z,2.30
2022-12-22T08:13:08.430Z,1.60
2022-12-22T08:15:55.902Z,1.50
2022-12-22T08:18:44.524Z,1.37
2022-12-22T08:21:31.930Z,1.30
2022-12-22T08:24:19.409Z,1.50
2022-12-22T08:27:09.759Z,1.62
2022-12-22T08:29:59.626Z,3.70
2022-12-22T08:32:50.490Z,1.62
2022-12-22T08:35:37.738Z,1.77
2022-12-22T08:38:25.514Z,1.25
2022-12-22T08:41:15.789Z,2.02
2022-12-22T08:44:03.039Z,1.90
2022-12-22T08:46:52.186Z,1.80
2022-12-22T08:49:41.097Z,1.65
2022-12-22T08:52:28.661Z,1.70
2022-12-22T08:55:16.515Z,3.83
2022-12-22T08:58:04.099Z,1.42
2022-12-22T09:00:51.534Z,1.67
2022-12-22T09:03:38.921Z,1.60
2022-12-22T09:06:28.013Z,1.45
2022-12-22T09:09:17.638Z,1.50
2022-12-22T09:12:05.346Z,1.60
2022-12-22T09:14:52.956Z,1.35
2022-12-22T09:17:41.758Z,1.20
2022-12-22T09:20:29.199Z,5.90
2022-12-22T09:23:16.742Z,2.22
2022-12-22T09:26:12.325Z,2.20
2022-12-22T09:28:59.602Z,2.17
2022-12-22T09:31:47.158Z,1.32
2022-12-22T09:34:34.751Z,1.65
2022-12-22T09:37:21.823Z,1.50
2022-12-22T09:40:10.354Z,1.52
2022-12-22T09:42:59.437Z,1.50
2022-12-22T09:45:46.771Z,1.45
2022-12-22T09:48:38.723Z,1.95
2022-12-22T09:51:27.552Z,1.45
2022-12-22T09:54:16.100Z,2.00
2022-12-22T09:57:03.713Z,1.70
2022-12-22T09:59:51.008Z,1.82
2022-12-22T10:03:10.287Z,1.98
2022-12-22T10:06:13.024Z,2.00
2022-12-22T10:09:21.582Z,2.10
2022-12-22T10:11:57.496Z,1.67
2022-12-22T10:14:47.906Z,1.98
2022-12-22T10:17:35.791Z,2.30
2022-12-22T10:20:28.426Z,1.62
2022-12-22T10:23:24.417Z,2.00
2022-12-22T10:26:31.760Z,1.63
2022-12-22T10:29:12.668Z,1.60
2022-12-22T10:32:05.763Z,1.80
2022-12-22T10:35:07.006Z,1.60
2022-12-22T10:37:54.182Z,1.22
2022-12-22T10:40:50.097Z,1.40
2022-12-22T10:43:40.393Z,1.62
2022-12-22T10:46:39.948Z,1.37
2022-12-22T10:49:33.251Z,1.60
2022-12-22T10:52:30.454Z,1.47
2022-12-22T10:55:20.703Z,2.05
2022-12-22T10:58:17.685Z,2.22
2022-12-22T11:01:06.095Z,2.30
2022-12-22T11:03:53.623Z,2.60
2022-12-22T11:06:42.063Z,2.60
2022-12-22T11:09:34.668Z,2.60
2022-12-22T11:12:27.701Z,2.08
2022-12-22T11:15:34.972Z,2.27
2022-12-22T11:18:28.991Z,2.45
2022-12-22T11:21:25.183Z,2.87
2022-12-22T11:24:24.426Z,1.57
2022-12-22T11:27:31.628Z,2.90
2022-12-22T11:30:31.435Z,3.50
2022-12-22T11:33:40.369Z,3.10
2022-12-22T11:36:54.935Z,8.23
2022-12-22T11:39:48.255Z,7.35
2022-12-22T11:42:41.419Z,3.27
2022-12-22T11:45:49.600Z,3.45
2022-12-22T11:49:01.034Z,15.65
2022-12-22T11:51:54.108Z,7.58
2022-12-22T11:54:56.265Z,6.35
2022-12-22T11:57:46.905Z,7.12
2022-12-22T12:01:11.861Z,3.27
2022-12-22T12:03:35.650Z,3.80
2022-12-22T12:07:02.888Z,2.77
2022-12-22T12:10:29.593Z,7.28
2022-12-22T12:13:37.136Z,2.37
2022-12-22T12:16:36.876Z,3.67
2022-12-22T12:19:36.133Z,3.52
2022-12-22T12:22:47.738Z,3.10
2022-12-22T12:26:04.519Z,2.42
2022-12-22T12:28:57.205Z,2.30
2022-12-22T12:31:56.194Z,4.20
2022-12-22T12:34:46.573Z,2.77
2022-12-22T12:37:41.545Z,2.00
2022-12-22T12:40:35.980Z,1.72
2022-12-22T12:43:24.773Z,1.87
2022-12-22T12:46:48.676Z,1.60
2022-12-22T12:49:39.304Z,1.70
2022-12-22T12:52:42.993Z,1.80
2022-12-22T12:55:36.124Z,1.50
2022-12-22T12:58:42.784Z,1.60
2022-12-22T13:01:33.293Z,1.30
2022-12-22T13:04:56.859Z,1.30
2022-12-22T13:08:06.843Z,1.30
2022-12-22T13:11:00.162Z,1.60
2022-12-22T13:13:49.201Z,1.65
2022-12-22T13:16:39.063Z,1.62
2022-12-22T13:19:27.489Z,2.30
2022-12-22T13:22:15.069Z,1.62
2022-12-22T13:25:04.103Z,1.50
2022-12-22T13:27:55.610Z,1.70
2022-12-22T13:30:48.830Z,1.50
2022-12-22T13:33:38.796Z,1.57
2022-12-22T13:36:28.755Z,1.77
2022-12-22T13:39:16.788Z,1.85
2022-12-22T13:42:06.700Z,2.00
2022-12-22T13:44:55.406Z,2.50
2022-12-22T13:47:48.007Z,2.52
2022-12-22T13:50:38.048Z,2.70
2022-12-22T13:54:07.200Z,3.05
2022-12-22T13:56:29.374Z,2.90
2022-12-22T13:59:31.452Z,2.60
2022-12-22T14:02:24.004Z,2.90
2022-12-22T14:05:15.130Z,2.85
2022-12-22T14:08:04.853Z,1.90
2022-12-22T14:10:53.437Z,2.50
2022-12-22T14:13:41.136Z,2.15
2022-12-22T14:16:28.632Z,2.70
2022-12-22T14:19:18.101Z,6.08
2022-12-22T14:22:10.762Z,2.47
2022-12-22T14:25:01.310Z,3.33
2022-12-22T14:27:55.855Z,3.50
2022-12-22T14:30:46.393Z,2.80
2022-12-22T14:33:35.803Z,2.65
2022-12-22T14:36:28.001Z,2.95
2022-12-22T14:39:24.011Z,3.40
2022-12-22T14:42:14.317Z,3.72
2022-12-22T14:45:01.537Z,4.22
2022-12-22T14:47:48.912Z,4.35
2022-12-22T14:50:39.147Z,4.35
2022-12-22T14:53:29.931Z,3.30
2022-12-22T14:56:18.517Z,3.47
2022-12-22T14:59:14.916Z,2.87
2022-12-22T15:02:20.519Z,3.50
2022-12-22T15:05:16.496Z,3.60
2022-12-22T15:08:07.177Z,2.75
2022-12-22T15:10:55.050Z,2.22
2022-12-22T15:13:43.278Z,2.55
2022-12-22T15:16:34.078Z,2.47
2022-12-22T15:19:23.393Z,2.75
2022-12-22T15:22:10.414Z,3.20
2022-12-22T15:24:57.971Z,3.77
2022-12-22T15:27:46.390Z,1.85
2022-12-22T15:30:33.610Z,1.80
2022-12-22T15:33:20.936Z,2.22
2022-12-22T15:36:11.985Z,2.62
2022-12-22T15:38:59.132Z,2.87
2022-12-22T15:41:47.138Z,2.20
2022-12-22T15:44:38.728Z,2.50
2022-12-22T15:47:23.537Z,2.05
2022-12-22T15:50:14.209Z,2.70
2022-12-22T15:53:02.143Z,3.42
2022-12-22T15:55:52.367Z,4.47
2022-12-22T15:58:40.140Z,2.85
2022-12-22T16:01:27.842Z,2.22
2022-12-22T16:04:15.670Z,2.30
2022-12-22T16:07:02.959Z,2.30
2022-12-22T16:09:50.205Z,2.47
2022-12-22T16:12:39.473Z,2.85
2022-12-22T16:15:29.210Z,4.45
2022-12-22T16:18:16.974Z,4.83
2022-12-22T16:21:16.984Z,3.98
2022-12-22T16:24:04.427Z,3.58
2022-12-22T16:26:51.777Z,2.90
2022-12-22T16:29:40.073Z,2.50
2022-12-22T16:32:30.064Z,3.22
2022-12-22T16:35:20.010Z,2.50
2022-12-22T16:38:11.705Z,2.02
2022-12-22T16:40:56.888Z,2.20
2022-12-22T16:43:50.362Z,2.10
2022-12-22T16:46:41.985Z,2.20
2022-12-22T16:49:29.416Z,2.42
2022-12-22T16:52:19.689Z,2.37
2022-12-22T16:55:16.636Z,2.47
2022-12-22T17:00:51.970Z,2.98
2022-12-22T17:03:41.197Z,3.35
2022-12-22T17:06:28.798Z,3.30
2022-12-22T17:09:22.242Z,3.58
2022-12-22T17:12:12.536Z,3.72
2022-12-22T17:15:00.855Z,4.55
2022-12-22T17:17:47.970Z,4.72
2022-12-22T17:20:35.738Z,4.25
2022-12-22T17:23:35.129Z,4.70
2022-12-22T17:26:25.292Z,4.72
2022-12-22T17:29:15.882Z,5.45
2022-12-22T17:32:02.976Z,6.95
2022-12-22T17:34:50.707Z,7.22
2022-12-22T17:37:38.240Z,7.37
2022-12-22T17:40:30.039Z,7.90
2022-12-22T17:43:19.632Z,7.87
2022-12-22T17:46:08.883Z,7.70
2022-12-22T17:48:56.523Z,7.60
2022-12-22T17:51:44.029Z,7.47
2022-12-22T17:54:31.306Z,6.90
2022-12-22T17:57:24.582Z,7.65
2022-12-22T18:00:18.652Z,6.85
2022-12-22T18:03:06.205Z,7.25
2022-12-22T18:05:54.973Z,6.85
2022-12-22T18:08:42.134Z,6.92
2022-12-22T18:11:29.701Z,6.28
2022-12-22T18:14:18.232Z,6.50
2022-12-22T18:17:05.915Z,7.20
2022-12-22T18:19:54.009Z,7.10
2022-12-22T18:22:41.083Z,8.75
2022-12-22T18:25:33.587Z,8.83
2022-12-22T18:28:21.200Z,9.08
2022-12-22T18:31:08.856Z,8.13
2022-12-22T18:33:56.086Z,8.33
2022-12-22T18:36:44.983Z,8.35
2022-12-22T18:39:32.976Z,10.18
2022-12-22T18:42:23.831Z,11.33
2022-12-22T18:45:15.896Z,12.25
2022-12-22T18:48:03.568Z,11.68
2022-12-22T18:50:51.168Z,10.93
2022-12-22T18:53:38.442Z,10.43
2022-12-22T18:56:26.046Z,11.03
2022-12-22T18:59:16.623Z,9.78
2022-12-22T19:02:06.828Z,10.30
2022-12-22T19:04:55.274Z,10.38
2022-12-22T19:07:42.894Z,10.82
2022-12-22T19:10:35.990Z,11.22
2022-12-22T19:13:29.024Z,9.75
2022-12-22T19:16:18.675Z,9.00
2022-12-22T19:19:06.225Z,8.28
2022-12-22T19:21:54.221Z,9.55
2022-12-22T19:24:44.874Z,10.32
2022-12-22T19:27:33.001Z,9.93
2022-12-22T19:30:27.928Z,8.48
2022-12-22T19:33:27.232Z,8.10
2022-12-22T19:36:17.682Z,8.63
2022-12-22T19:39:06.129Z,9.43
2022-12-22T19:41:56.313Z,10.40
2022-12-22T19:44:44.900Z,9.25
2022-12-22T19:47:32.284Z,9.53
2022-12-22T19:50:24.580Z,9.65
2022-12-22T19:53:12.777Z,10.28
2022-12-22T19:55:59.744Z,10.32
2022-12-22T19:58:47.237Z,9.70
2022-12-22T20:01:35.630Z,10.50
2022-12-22T20:04:23.189Z,10.05
2022-12-22T20:07:13.993Z,10.55
2022-12-22T20:10:01.420Z,11.60
2022-12-22T20:12:51.930Z,12.45
2022-12-22T20:15:40.171Z,10.80
2022-12-22T20:18:30.186Z,10.53
2022-12-22T20:21:29.899Z,10.53
2022-12-22T20:24:23.379Z,10.93
2022-12-22T20:27:25.757Z,12.37
2022-12-22T20:30:22.393Z,14.15
2022-12-22T20:33:10.051Z,12.60
2022-12-22T20:35:59.094Z,13.90
2022-12-22T20:38:47.397Z,12.65
2022-12-22T20:41:34.991Z,12.98
2022-12-22T20:44:22.987Z,13.20
2022-12-22T20:47:20.248Z,12.98
2022-12-22T20:50:02.262Z,13.80
2022-12-22T20:52:50.681Z,14.38
2022-12-22T20:55:38.953Z,14.18
2022-12-22T20:58:28.969Z,13.38
2022-12-22T21:01:17.258Z,11.78
2022-12-22T21:04:04.629Z,12.18
2022-12-22T21:06:54.717Z,12.05
2022-12-22T21:09:42.035Z,10.65
2022-12-22T21:12:29.535Z,10.28
2022-12-22T21:15:19.364Z,10.55
2022-12-22T21:18:10.023Z,11.00
2022-12-22T21:20:57.238Z,10.18
2022-12-22T21:23:44.698Z,11.08
2022-12-22T21:26:37.925Z,9.60
2022-12-22T21:29:27.662Z,10.32
2022-12-22T21:32:15.862Z,9.55
2022-12-22T21:35:07.925Z,9.80
2022-12-22T21:37:54.206Z,9.73
2022-12-22T21:40:41.807Z,9.58
2022-12-22T21:43:29.386Z,10.38
2022-12-22T21:46:16.716Z,9.93
2022-12-22T21:49:04.260Z,10.08
2022-12-22T21:51:53.511Z,11.45
2022-12-22T21:54:40.985Z,11.08
2022-12-22T21:57:28.517Z,10.23
2022-12-22T22:00:18.385Z,8.38
2022-12-22T22:03:06.429Z,10.05
2022-12-22T22:05:53.681Z,9.63
2022-12-22T22:08:41.028Z,8.93
2022-12-22T22:11:28.700Z,8.93
2022-12-22T22:14:16.119Z,8.88
2022-12-22T22:17:03.535Z,9.58
2022-12-22T22:19:50.894Z,9.25
2022-12-22T22:22:39.452Z,8.93
2022-12-22T22:25:27.588Z,9.55
2022-12-22T22:28:14.670Z,9.10
2022-12-22T22:31:02.942Z,8.50
2022-12-22T22:33:50.529Z,8.33
2022-12-22T22:36:38.918Z,8.30
2022-12-22T22:39:26.456Z,7.47
2022-12-22T22:42:13.935Z,8.10
2022-12-22T22:45:01.336Z,9.40
2022-12-22T22:47:48.871Z,8.45
2022-12-22T22:50:36.100Z,8.50
2022-12-22T22:53:23.510Z,8.45
2022-12-22T22:56:10.822Z,8.23
2022-12-22T22:59:00.259Z,7.70
2022-12-22T23:01:47.890Z,8.15
2022-12-22T23:04:35.053Z,8.73
2022-12-22T23:07:23.171Z,9.55
2022-12-22T23:10:11.118Z,9.90
2022-12-22T23:12:58.663Z,9.38
2022-12-22T23:15:58.377Z,9.45
2022-12-22T23:18:45.651Z,10.78
2022-12-22T23:21:32.805Z,11.48
2022-12-22T23:24:19.989Z,10.40
2022-12-22T23:27:07.705Z,9.88
2022-12-22T23:29:56.587Z,10.32
2022-12-22T23:32:44.144Z,9.78
2022-12-22T23:35:31.777Z,10.15
2022-12-22T23:38:23.966Z,10.40
2022-12-22T23:41:13.670Z,10.03
2022-12-22T23:44:01.125Z,10.38
2022-12-22T23:46:48.796Z,10.00
2022-12-22T23:49:36.291Z,9.95
2022-12-22T23:52:23.513Z,9.18
2022-12-22T23:55:11.077Z,9.05
2022-12-22T23:57:58.425Z,9.10
